Aviation Digital Data Service (ADDS)

Output produced by METARs form (1325 UTC 21 August 2019)
found at http://www.aviationweather.gov/metar/data/
 
METAR text: PANC 211253Z 19004KT 7SM CLR 10/07 A2974 RMK AO2 SLP071 T01000072
Conditions at: PANC (ANCHORAGE INTL , AK, US) observed 1253 UTC 21 August 2019
Temperature: 10.0°C (50°F)
Dewpoint: 7.2°C (45°F) [RH = 83%]
Pressure (altimeter): 29.74 inches Hg (1007.2 mb)
[Sea-level pressure: 1007.1 mb]
Winds: from the S (190 degrees) at 5 MPH (4 knots; 2.1 m/s)
Visibility: 7 miles (11 km)
Ceiling: at least 12,000 feet AGL
Clouds: sky clear below 12,000 feet AGL
Weather: no significant weather observed at this time

METAR text: PANC 211153Z 18004KT 7SM CLR 08/07 A2973 RMK AO2 SLP069 T00830072 10139 20083 56003
Conditions at: PANC (ANCHORAGE INTL , AK, US) observed 1153 UTC 21 August 2019
Temperature: 8.3°C (47°F)
Dewpoint: 7.2°C (45°F) [RH = 93%]
Pressure (altimeter): 29.73 inches Hg (1006.9 mb)
[Sea-level pressure: 1006.9 mb]
Winds: from the S (180 degrees) at 5 MPH (4 knots; 2.1 m/s)
Visibility: 7 miles (11 km)
Ceiling: at least 12,000 feet AGL
Clouds: sky clear below 12,000 feet AGL
Weather: no significant weather observed at this time

METAR text: PANC 211053Z 19005KT 9SM CLR 10/07 A2973 RMK AO2 SLP069 T01000067
Conditions at: PANC (ANCHORAGE INTL , AK, US) observed 1053 UTC 21 August 2019
Temperature: 10.0°C (50°F)
Dewpoint: 6.7°C (44°F) [RH = 80%]
Pressure (altimeter): 29.73 inches Hg (1006.9 mb)
[Sea-level pressure: 1006.9 mb]
Winds: from the S (190 degrees) at 6 MPH (5 knots; 2.6 m/s)
Visibility: 9 miles (14 km)
Ceiling: at least 12,000 feet AGL
Clouds: sky clear below 12,000 feet AGL
Weather: no significant weather observed at this time

METAR text: PANC 210953Z 19004KT 10SM CLR 08/06 A2974 RMK AO2 SLP071 T00830061
Conditions at: PANC (ANCHORAGE INTL , AK, US) observed 0953 UTC 21 August 2019
Temperature: 8.3°C (47°F)
Dewpoint: 6.1°C (43°F) [RH = 86%]
Pressure (altimeter): 29.74 inches Hg (1007.2 mb)
[Sea-level pressure: 1007.1 mb]
Winds: from the S (190 degrees) at 5 MPH (4 knots; 2.1 m/s)
Visibility: 10 or more miles (16+ km)
Ceiling: at least 12,000 feet AGL
Clouds: sky clear below 12,000 feet AGL
Weather: no significant weather observed at this time

METAR text: PANC 210853Z 19005KT 10SM CLR 10/07 A2974 RMK AO2 SLP072 T01000067 401830089 51000
Conditions at: PANC (ANCHORAGE INTL , AK, US) observed 0853 UTC 21 August 2019
Temperature: 10.0°C (50°F)
Dewpoint: 6.7°C (44°F) [RH = 80%]
Pressure (altimeter): 29.74 inches Hg (1007.2 mb)
[Sea-level pressure: 1007.2 mb]
Winds: from the S (190 degrees) at 6 MPH (5 knots; 2.6 m/s)
Visibility: 10 or more miles (16+ km)
Ceiling: at least 12,000 feet AGL
Clouds: sky clear below 12,000 feet AGL
Weather: no significant weather observed at this time

METAR text: PANC 210753Z 20005KT 10SM CLR 12/07 A2974 RMK AO2 SLP072 T01170072
Conditions at: PANC (ANCHORAGE INTL , AK, US) observed 0753 UTC 21 August 2019
Temperature: 11.7°C (53°F)
Dewpoint: 7.2°C (45°F) [RH = 74%]
Pressure (altimeter): 29.74 inches Hg (1007.2 mb)
[Sea-level pressure: 1007.2 mb]
Winds: from the SSW (200 degrees) at 6 MPH (5 knots; 2.6 m/s)
Visibility: 10 or more miles (16+ km)
Ceiling: at least 12,000 feet AGL
Clouds: sky clear below 12,000 feet AGL
Weather: no significant weather observed at this time

METAR text: PANC 210653Z 20004KT 10SM CLR 11/08 A2974 RMK AO2 SLP072 T01110078
Conditions at: PANC (ANCHORAGE INTL , AK, US) observed 0653 UTC 21 August 2019
Temperature: 11.1°C (52°F)
Dewpoint: 7.8°C (46°F) [RH = 80%]
Pressure (altimeter): 29.74 inches Hg (1007.2 mb)
[Sea-level pressure: 1007.2 mb]
Winds: from the SSW (200 degrees) at 5 MPH (4 knots; 2.1 m/s)
Visibility: 10 or more miles (16+ km)
Ceiling: at least 12,000 feet AGL
Clouds: sky clear below 12,000 feet AGL
Weather: no significant weather observed at this time

METAR text: PANC 210553Z 25006KT 10SM FEW030 FEW110 13/08 A2974 RMK AO2 SLP072 T01330083 10183 20133 53005
Conditions at: PANC (ANCHORAGE INTL , AK, US) observed 0553 UTC 21 August 2019
Temperature: 13.3°C (56°F)
Dewpoint: 8.3°C (47°F) [RH = 72%]
Pressure (altimeter): 29.74 inches Hg (1007.2 mb)
[Sea-level pressure: 1007.2 mb]
Winds: from the WSW (250 degrees) at 7 MPH (6 knots; 3.1 m/s)
Visibility: 10 or more miles (16+ km)
Ceiling: at least 12,000 feet AGL
Clouds: few clouds at 3000 feet AGL
few clouds at 11000 feet AGL
Weather: no significant weather observed at this time

METAR text: PANC 210453Z 24009KT 6SM FU FEW095 SCT110 15/07 A2973 RMK AO2 SLP069 T01500072
Conditions at: PANC (ANCHORAGE INTL , AK, US) observed 0453 UTC 21 August 2019
Temperature: 15.0°C (59°F)
Dewpoint: 7.2°C (45°F) [RH = 60%]
Pressure (altimeter): 29.73 inches Hg (1006.9 mb)
[Sea-level pressure: 1006.9 mb]
Winds: from the WSW (240 degrees) at 10 MPH (9 knots; 4.6 m/s)
Visibility: 6 miles (10 km)
Ceiling: at least 12,000 feet AGL
Clouds: few clouds at 9500 feet AGL
scattered clouds at 11000 feet AGL
Weather: FU  (smoke)

METAR text: PANC 210420Z 25009KT 4SM FU FEW018 SCT095 BKN110 16/08 A2973 RMK AO2 T01560078
Conditions at: PANC (ANCHORAGE INTL , AK, US) observed 0420 UTC 21 August 2019
Temperature: 15.6°C (60°F)
Dewpoint: 7.8°C (46°F) [RH = 60%]
Pressure (altimeter): 29.73 inches Hg (1006.9 mb)
Winds: from the WSW (250 degrees) at 10 MPH (9 knots; 4.6 m/s)
Visibility: 4 miles ( 6 km)
Ceiling: 11000 feet AGL
Clouds: few clouds at 1800 feet AGL
scattered clouds at 9500 feet AGL
broken clouds at 11000 feet AGL
Weather: FU  (smoke)

METAR text: PANC 210353Z 25009KT 2SM FU FEW018 SCT095 BKN110 16/07 A2973 RMK AO2 SFC VIS 3 SLP067 VIS NW 2 T01610072
Conditions at: PANC (ANCHORAGE INTL , AK, US) observed 0353 UTC 21 August 2019
Temperature: 16.1°C (61°F)
Dewpoint: 7.2°C (45°F) [RH = 56%]
Pressure (altimeter): 29.73 inches Hg (1006.9 mb)
[Sea-level pressure: 1006.7 mb]
Winds: from the WSW (250 degrees) at 10 MPH (9 knots; 4.6 m/s)
Visibility: 2.00 miles (3.22 km)
Ceiling: 11000 feet AGL
Clouds: few clouds at 1800 feet AGL
scattered clouds at 9500 feet AGL
broken clouds at 11000 feet AGL
Weather: FU  (smoke)

METAR text: PANC 210253Z 28006KT 2SM FU FEW018 SCT095 SCT120 18/04 A2973 RMK AO2 SFC VIS 4 SLP066 VIS NW 2 T01780039 56009
Conditions at: PANC (ANCHORAGE INTL , AK, US) observed 0253 UTC 21 August 2019
Temperature: 17.8°C (64°F)
Dewpoint: 3.9°C (39°F) [RH = 40%]
Pressure (altimeter): 29.73 inches Hg (1006.9 mb)
[Sea-level pressure: 1006.6 mb]
Winds: from the W (280 degrees) at 7 MPH (6 knots; 3.1 m/s)
Visibility: 2.00 miles (3.22 km)
Ceiling: at least 12,000 feet AGL
Clouds: few clouds at 1800 feet AGL
scattered clouds at 9500 feet AGL
scattered clouds at 12000 feet AGL
Weather: FU  (smoke)

METAR text: PANC 210153Z 28006KT 2SM FU FEW018 SCT095 SCT120 18/05 A2973 RMK AO2 SFC VIS 3 SLP068 VIS NW 2 T01780050
Conditions at: PANC (ANCHORAGE INTL , AK, US) observed 0153 UTC 21 August 2019
Temperature: 17.8°C (64°F)
Dewpoint: 5.0°C (41°F) [RH = 43%]
Pressure (altimeter): 29.73 inches Hg (1006.9 mb)
[Sea-level pressure: 1006.8 mb]
Winds: from the W (280 degrees) at 7 MPH (6 knots; 3.1 m/s)
Visibility: 2.00 miles (3.22 km)
Ceiling: at least 12,000 feet AGL
Clouds: few clouds at 1800 feet AGL
scattered clouds at 9500 feet AGL
scattered clouds at 12000 feet AGL
Weather: FU  (smoke)

METAR text: PANC 210053Z 28006KT 2SM FU FEW018 SCT095 BKN120 18/04 A2974 RMK AO2 SLP071 VIS NW-N 1 1/2 T01780044
Conditions at: PANC (ANCHORAGE INTL , AK, US) observed 0053 UTC 21 August 2019
Temperature: 17.8°C (64°F)
Dewpoint: 4.4°C (40°F) [RH = 41%]
Pressure (altimeter): 29.74 inches Hg (1007.2 mb)
[Sea-level pressure: 1007.1 mb]
Winds: from the W (280 degrees) at 7 MPH (6 knots; 3.1 m/s)
Visibility: 2.00 miles (3.22 km)
Ceiling: 12000 feet AGL
Clouds: few clouds at 1800 feet AGL
scattered clouds at 9500 feet AGL
broken clouds at 12000 feet AGL
Weather: FU  (smoke)

METAR text: PANC 210002Z 30006KT 2SM FU FEW040 BKN120 BKN200 17/06 A2975 RMK AO2 SFC VIS 2 1/2 VIS NW-N 1 1/2 T01720056
Conditions at: PANC (ANCHORAGE INTL , AK, US) observed 0002 UTC 21 August 2019
Temperature: 17.2°C (63°F)
Dewpoint: 5.6°C (42°F) [RH = 46%]
Pressure (altimeter): 29.75 inches Hg (1007.5 mb)
Winds: from the WNW (300 degrees) at 7 MPH (6 knots; 3.1 m/s)
Visibility: 2.00 miles (3.22 km)
Ceiling: 12000 feet AGL
Clouds: few clouds at 4000 feet AGL
broken clouds at 12000 feet AGL
broken clouds at 20000 feet AGL
Weather: FU  (smoke)

METAR text: PANC 202353Z 30007KT 1 1/2SM FU FEW040 BKN095 BKN200 17/06 A2975 RMK AO2 SFC VIS 2 1/2 SLP075 VIS NW-N 1 1/2 T01720061 10183 20144 58010
Conditions at: PANC (ANCHORAGE INTL , AK, US) observed 2353 UTC 20 August 2019
Temperature: 17.2°C (63°F)
Dewpoint: 6.1°C (43°F) [RH = 48%]
Pressure (altimeter): 29.75 inches Hg (1007.5 mb)
[Sea-level pressure: 1007.5 mb]
Winds: from the WNW (300 degrees) at 8 MPH (7 knots; 3.6 m/s)
Visibility: 1.50 miles (2.41 km)
Ceiling: 9500 feet AGL
Clouds: few clouds at 4000 feet AGL
broken clouds at 9500 feet AGL
broken clouds at 20000 feet AGL
Weather: FU  (smoke)

METAR text: PANC 202346Z 30007KT 1 1/2SM FU FEW040 BKN095 BKN200 17/07 A2975 RMK AO2 SFC VIS 4 VIS NW-N 2 T01670067
Conditions at: PANC (ANCHORAGE INTL , AK, US) observed 2346 UTC 20 August 2019
Temperature: 16.7°C (62°F)
Dewpoint: 6.7°C (44°F) [RH = 52%]
Pressure (altimeter): 29.75 inches Hg (1007.5 mb)
Winds: from the WNW (300 degrees) at 8 MPH (7 knots; 3.6 m/s)
Visibility: 1.50 miles (2.41 km)
Ceiling: 9500 feet AGL
Clouds: few clouds at 4000 feet AGL
broken clouds at 9500 feet AGL
broken clouds at 20000 feet AGL
Weather: FU  (smoke)

METAR text: PANC 202253Z VRB04KT 6SM FU FEW030TCU BKN095 BKN200 16/09 A2977 RMK AO2 SLP080 TCU N T01560089
Conditions at: PANC (ANCHORAGE INTL , AK, US) observed 2253 UTC 20 August 2019
Temperature: 15.6°C (60°F)
Dewpoint: 8.9°C (48°F) [RH = 64%]
Pressure (altimeter): 29.77 inches Hg (1008.2 mb)
[Sea-level pressure: 1008.0 mb]
Winds: variable direction winds at 5 MPH (4 knots; 2.1 m/s)
Visibility: 6 miles (10 km)
Ceiling: 9500 feet AGL
Clouds: few clouds at 3000 feet AGL
broken clouds at 9500 feet AGL
broken clouds at 20000 feet AGL
Weather: FU  (smoke)

METAR text: PANC 202153Z 32006KT 4SM FU FEW030TCU SCT095 BKN200 17/09 A2977 RMK AO2 SLP083 TCU N T01670089
Conditions at: PANC (ANCHORAGE INTL , AK, US) observed 2153 UTC 20 August 2019
Temperature: 16.7°C (62°F)
Dewpoint: 8.9°C (48°F) [RH = 60%]
Pressure (altimeter): 29.77 inches Hg (1008.2 mb)
[Sea-level pressure: 1008.3 mb]
Winds: from the NW (320 degrees) at 7 MPH (6 knots; 3.1 m/s)
Visibility: 4 miles ( 6 km)
Ceiling: 20000 feet AGL
Clouds: few clouds at 3000 feet AGL
scattered clouds at 9500 feet AGL
broken clouds at 20000 feet AGL
Weather: FU  (smoke)

METAR text: PANC 202053Z 32005KT 4SM FU FEW025 SCT100 BKN200 17/08 A2978 RMK AO2 SLP086 T01670078 56008
Conditions at: PANC (ANCHORAGE INTL , AK, US) observed 2053 UTC 20 August 2019
Temperature: 16.7°C (62°F)
Dewpoint: 7.8°C (46°F) [RH = 56%]
Pressure (altimeter): 29.78 inches Hg (1008.5 mb)
[Sea-level pressure: 1008.6 mb]
Winds: from the NW (320 degrees) at 6 MPH (5 knots; 2.6 m/s)
Visibility: 4 miles ( 6 km)
Ceiling: 20000 feet AGL
Clouds: few clouds at 2500 feet AGL
scattered clouds at 10000 feet AGL
broken clouds at 20000 feet AGL
Weather: FU  (smoke)

METAR text: PANC 201953Z 34007KT 4SM FU FEW000 FEW025 SCT070 BKN200 16/08 A2979 RMK AO2 SLP088 FU FEW000 T01610083
Conditions at: PANC (ANCHORAGE INTL , AK, US) observed 1953 UTC 20 August 2019
Temperature: 16.1°C (61°F)
Dewpoint: 8.3°C (47°F) [RH = 60%]
Pressure (altimeter): 29.79 inches Hg (1008.9 mb)
[Sea-level pressure: 1008.8 mb]
Winds: from the NNW (340 degrees) at 8 MPH (7 knots; 3.6 m/s)
Visibility: 4 miles ( 6 km)
Ceiling: 20000 feet AGL
Clouds: few clouds at 0 feet AGL
few clouds at 2500 feet AGL
scattered clouds at 7000 feet AGL
broken clouds at 20000 feet AGL
Weather: FU  (smoke)

METAR text: PANC 201924Z 31005KT 4SM FU FEW000 FEW025 SCT070 BKN200 16/08 A2980 RMK AO2 FU FEW000 T01610083
Conditions at: PANC (ANCHORAGE INTL , AK, US) observed 1924 UTC 20 August 2019
Temperature: 16.1°C (61°F)
Dewpoint: 8.3°C (47°F) [RH = 60%]
Pressure (altimeter): 29.80 inches Hg (1009.2 mb)
Winds: from the NW (310 degrees) at 6 MPH (5 knots; 2.6 m/s)
Visibility: 4 miles ( 6 km)
Ceiling: 20000 feet AGL
Clouds: few clouds at 0 feet AGL
few clouds at 2500 feet AGL
scattered clouds at 7000 feet AGL
broken clouds at 20000 feet AGL
Weather: FU  (smoke)

METAR text: PANC 201853Z 31003KT 3SM FU FEW000 SCT050 SCT070 BKN200 16/07 A2980 RMK AO2 SLP091 FU FEW000 T01610067
Conditions at: PANC (ANCHORAGE INTL , AK, US) observed 1853 UTC 20 August 2019
Temperature: 16.1°C (61°F)
Dewpoint: 6.7°C (44°F) [RH = 54%]
Pressure (altimeter): 29.80 inches Hg (1009.2 mb)
[Sea-level pressure: 1009.1 mb]
Winds: from the NW (310 degrees) at 3 MPH (3 knots; 1.5 m/s)
Visibility: 3 miles ( 5 km)
Ceiling: 20000 feet AGL
Clouds: few clouds at 0 feet AGL
scattered clouds at 5000 feet AGL
scattered clouds at 7000 feet AGL
broken clouds at 20000 feet AGL
Weather: FU  (smoke)

METAR text: PANC 201834Z 31004KT 3SM FU FEW000 FEW080 BKN200 16/07 A2980 RMK AO2 FU FEW000 T01560067
Conditions at: PANC (ANCHORAGE INTL , AK, US) observed 1834 UTC 20 August 2019
Temperature: 15.6°C (60°F)
Dewpoint: 6.7°C (44°F) [RH = 55%]
Pressure (altimeter): 29.80 inches Hg (1009.2 mb)
Winds: from the NW (310 degrees) at 5 MPH (4 knots; 2.1 m/s)
Visibility: 3 miles ( 5 km)
Ceiling: 20000 feet AGL
Clouds: few clouds at 0 feet AGL
few clouds at 8000 feet AGL
broken clouds at 20000 feet AGL
Weather: FU  (smoke)

METAR text: PANC 201753Z 00000KT 2 1/2SM FU FEW000 FEW070 BKN200 14/05 A2981 RMK AO2 SLP094 FU FEW000 T01440050 10144 20094 58004
Conditions at: PANC (ANCHORAGE INTL , AK, US) observed 1753 UTC 20 August 2019
Temperature: 14.4°C (58°F)
Dewpoint: 5.0°C (41°F) [RH = 53%]
Pressure (altimeter): 29.81 inches Hg (1009.6 mb)
[Sea-level pressure: 1009.4 mb]
Winds: calm
Visibility: 2.50 miles (4.02 km)
Ceiling: 20000 feet AGL
Clouds: few clouds at 0 feet AGL
few clouds at 7000 feet AGL
broken clouds at 20000 feet AGL
Weather: FU  (smoke)

METAR text: PANC 201653Z 08004KT 2 1/2SM FU FEW000 FEW070 BKN200 12/05 A2981 RMK AO2 SLP097 FU FEW000 T01220050
Conditions at: PANC (ANCHORAGE INTL , AK, US) observed 1653 UTC 20 August 2019
Temperature: 12.2°C (54°F)
Dewpoint: 5.0°C (41°F) [RH = 61%]
Pressure (altimeter): 29.81 inches Hg (1009.6 mb)
[Sea-level pressure: 1009.7 mb]
Winds: from the E (80 degrees) at 5 MPH (4 knots; 2.1 m/s)
Visibility: 2.50 miles (4.02 km)
Ceiling: 20000 feet AGL
Clouds: few clouds at 0 feet AGL
few clouds at 7000 feet AGL
broken clouds at 20000 feet AGL
Weather: FU  (smoke)

METAR text: PANC 201651Z 08004KT 2 1/2SM FU FEW000 FEW070 BKN200 12/04 A2981 RMK AO2 FU FEW000
Conditions at: PANC (ANCHORAGE INTL , AK, US) observed 1651 UTC 20 August 2019
Temperature: 12.0°C (54°F)
Dewpoint: 4.0°C (39°F) [RH = 58%]
Pressure (altimeter): 29.81 inches Hg (1009.6 mb)
Winds: from the E (80 degrees) at 5 MPH (4 knots; 2.1 m/s)
Visibility: 2.50 miles (4.02 km)
Ceiling: 20000 feet AGL
Clouds: few clouds at 0 feet AGL
few clouds at 7000 feet AGL
broken clouds at 20000 feet AGL
Weather: FU  (smoke)

METAR text: PANC 201553Z 10005KT 3SM FU FEW000 SCT070 BKN200 10/06 A2982 RMK AO2 SLP098 FU FEW000 T01000056
Conditions at: PANC (ANCHORAGE INTL , AK, US) observed 1553 UTC 20 August 2019
Temperature: 10.0°C (50°F)
Dewpoint: 5.6°C (42°F) [RH = 74%]
Pressure (altimeter): 29.82 inches Hg (1009.9 mb)
[Sea-level pressure: 1009.8 mb]
Winds: from the E (100 degrees) at 6 MPH (5 knots; 2.6 m/s)
Visibility: 3 miles ( 5 km)
Ceiling: 20000 feet AGL
Clouds: few clouds at 0 feet AGL
scattered clouds at 7000 feet AGL
broken clouds at 20000 feet AGL
Weather: FU  (smoke)

METAR text: PANC 201453Z 17006KT 5SM FU SCT000 SCT070 BKN200 10/07 A2982 RMK AO2 SLP099 T01000067 56005
Conditions at: PANC (ANCHORAGE INTL , AK, US) observed 1453 UTC 20 August 2019
Temperature: 10.0°C (50°F)
Dewpoint: 6.7°C (44°F) [RH = 80%]
Pressure (altimeter): 29.82 inches Hg (1009.9 mb)
[Sea-level pressure: 1009.9 mb]
Winds: from the S (170 degrees) at 7 MPH (6 knots; 3.1 m/s)
Visibility: 5 miles ( 8 km)
Ceiling: 20000 feet AGL
Clouds: scattered clouds at 0 feet AGL
scattered clouds at 7000 feet AGL
broken clouds at 20000 feet AGL
Weather: FU  (smoke)

METAR text: PANC 201353Z 16006KT 6SM FU SCT000 SCT120 11/07 A2983 RMK AO2 SLP101 FU SCT000 T01060067
Conditions at: PANC (ANCHORAGE INTL , AK, US) observed 1353 UTC 20 August 2019
Temperature: 10.6°C (51°F)
Dewpoint: 6.7°C (44°F) [RH = 77%]
Pressure (altimeter): 29.83 inches Hg (1010.2 mb)
[Sea-level pressure: 1010.1 mb]
Winds: from the SSE (160 degrees) at 7 MPH (6 knots; 3.1 m/s)
Visibility: 6 miles (10 km)
Ceiling: at least 12,000 feet AGL
Clouds: scattered clouds at 0 feet AGL
scattered clouds at 12000 feet AGL
Weather: FU  (smoke)

METAR text: PANC 201253Z 17007KT 5SM FU FEW000 SCT017 11/07 A2983 RMK AO2 SLP103 FU FEW000 T01060072
Conditions at: PANC (ANCHORAGE INTL , AK, US) observed 1253 UTC 20 August 2019
Temperature: 10.6°C (51°F)
Dewpoint: 7.2°C (45°F) [RH = 79%]
Pressure (altimeter): 29.83 inches Hg (1010.2 mb)
[Sea-level pressure: 1010.3 mb]
Winds: from the S (170 degrees) at 8 MPH (7 knots; 3.6 m/s)
Visibility: 5 miles ( 8 km)
Ceiling: at least 12,000 feet AGL
Clouds: few clouds at 0 feet AGL
scattered clouds at 1700 feet AGL
Weather: FU  (smoke)

METAR text: PANC 201153Z 18005KT 5SM FU FEW000 SCT200 10/07 A2984 RMK AO2 SLP105 FU FEW000 T01000067 10139 20089 58005
Conditions at: PANC (ANCHORAGE INTL , AK, US) observed 1153 UTC 20 August 2019
Temperature: 10.0°C (50°F)
Dewpoint: 6.7°C (44°F) [RH = 80%]
Pressure (altimeter): 29.84 inches Hg (1010.6 mb)
[Sea-level pressure: 1010.5 mb]
Winds: from the S (180 degrees) at 6 MPH (5 knots; 2.6 m/s)
Visibility: 5 miles ( 8 km)
Ceiling: at least 12,000 feet AGL
Clouds: few clouds at 0 feet AGL
scattered clouds at 20000 feet AGL
Weather: FU  (smoke)

METAR text: PANC 201053Z 17005KT 5SM FU FEW000 SCT034 12/06 A2985 RMK AO2 SLP108 FU FEW000 T01170061
Conditions at: PANC (ANCHORAGE INTL , AK, US) observed 1053 UTC 20 August 2019
Temperature: 11.7°C (53°F)
Dewpoint: 6.1°C (43°F) [RH = 68%]
Pressure (altimeter): 29.85 inches Hg (1010.9 mb)
[Sea-level pressure: 1010.8 mb]
Winds: from the S (170 degrees) at 6 MPH (5 knots; 2.6 m/s)
Visibility: 5 miles ( 8 km)
Ceiling: at least 12,000 feet AGL
Clouds: few clouds at 0 feet AGL
scattered clouds at 3400 feet AGL
Weather: FU  (smoke)

METAR text: PANC 201048Z 18005KT 5SM FU FEW000 SCT034 11/06 A2985 RMK AO2 FU FEW000
Conditions at: PANC (ANCHORAGE INTL , AK, US) observed 1048 UTC 20 August 2019
Temperature: 11.0°C (52°F)
Dewpoint: 6.0°C (43°F) [RH = 71%]
Pressure (altimeter): 29.85 inches Hg (1010.9 mb)
Winds: from the S (180 degrees) at 6 MPH (5 knots; 2.6 m/s)
Visibility: 5 miles ( 8 km)
Ceiling: at least 12,000 feet AGL
Clouds: few clouds at 0 feet AGL
scattered clouds at 3400 feet AGL
Weather: FU  (smoke)

METAR text: PANC 200953Z 18005KT 1 1/2SM FU SCT000 OVC034 09/07 A2985 RMK AO2 SLP109 FU SCT000 T00890072
Conditions at: PANC (ANCHORAGE INTL , AK, US) observed 0953 UTC 20 August 2019
Temperature: 8.9°C (48°F)
Dewpoint: 7.2°C (45°F) [RH = 89%]
Pressure (altimeter): 29.85 inches Hg (1010.9 mb)
[Sea-level pressure: 1010.9 mb]
Winds: from the S (180 degrees) at 6 MPH (5 knots; 2.6 m/s)
Visibility: 1.50 miles (2.41 km)
Ceiling: 3400 feet AGL
Clouds: scattered clouds at 0 feet AGL
overcast cloud deck at 3400 feet AGL
Weather: FU  (smoke)

METAR text: PANC 200950Z 18004KT 1 1/2SM FU SCT000 OVC034 10/07 A2985 RMK AO2 FU SCT000
Conditions at: PANC (ANCHORAGE INTL , AK, US) observed 0950 UTC 20 August 2019
Temperature: 10.0°C (50°F)
Dewpoint: 7.0°C (45°F) [RH = 82%]
Pressure (altimeter): 29.85 inches Hg (1010.9 mb)
Winds: from the S (180 degrees) at 5 MPH (4 knots; 2.1 m/s)
Visibility: 1.50 miles (2.41 km)
Ceiling: 3400 feet AGL
Clouds: scattered clouds at 0 feet AGL
overcast cloud deck at 3400 feet AGL
Weather: FU  (smoke)

METAR text: PANC 200853Z 16004KT 1 1/2SM FU SCT000 OVC023 09/08 A2985 RMK AO2 SLP110 FU SCT000 T00940078 401830089 51003
Conditions at: PANC (ANCHORAGE INTL , AK, US) observed 0853 UTC 20 August 2019
Temperature: 9.4°C (49°F)
Dewpoint: 7.8°C (46°F) [RH = 90%]
Pressure (altimeter): 29.85 inches Hg (1010.9 mb)
[Sea-level pressure: 1011.0 mb]
Winds: from the SSE (160 degrees) at 5 MPH (4 knots; 2.1 m/s)
Visibility: 1.50 miles (2.41 km)
Ceiling: 2300 feet AGL
Clouds: scattered clouds at 0 feet AGL
overcast cloud deck at 2300 feet AGL
Weather: FU  (smoke)

METAR text: PANC 200848Z VRB03KT 1 1/2SM FU SCT000 OVC023 11/08 A2985 RMK AO2 FU SCT000
Conditions at: PANC (ANCHORAGE INTL , AK, US) observed 0848 UTC 20 August 2019
Temperature: 11.0°C (52°F)
Dewpoint: 8.0°C (46°F) [RH = 82%]
Pressure (altimeter): 29.85 inches Hg (1010.9 mb)
Winds: variable direction winds at 3 MPH (3 knots; 1.5 m/s)
Visibility: 1.50 miles (2.41 km)
Ceiling: 2300 feet AGL
Clouds: scattered clouds at 0 feet AGL
overcast cloud deck at 2300 feet AGL
Weather: FU  (smoke)

METAR text: PANC 200753Z 24004KT 1 1/2SM FU SCT000 OVC048 12/08 A2985 RMK AO2 SLP110 FU SCT000 T01170078
Conditions at: PANC (ANCHORAGE INTL , AK, US) observed 0753 UTC 20 August 2019
Temperature: 11.7°C (53°F)
Dewpoint: 7.8°C (46°F) [RH = 77%]
Pressure (altimeter): 29.85 inches Hg (1010.9 mb)
[Sea-level pressure: 1011.0 mb]
Winds: from the WSW (240 degrees) at 5 MPH (4 knots; 2.1 m/s)
Visibility: 1.50 miles (2.41 km)
Ceiling: 4800 feet AGL
Clouds: scattered clouds at 0 feet AGL
overcast cloud deck at 4800 feet AGL
Weather: FU  (smoke)

METAR text: PANC 200653Z 00000KT 1 1/2SM FU SCT000 OVC030 11/07 A2985 RMK AO2 SLP110 FU SCT000 T01110067
Conditions at: PANC (ANCHORAGE INTL , AK, US) observed 0653 UTC 20 August 2019
Temperature: 11.1°C (52°F)
Dewpoint: 6.7°C (44°F) [RH = 74%]
Pressure (altimeter): 29.85 inches Hg (1010.9 mb)
[Sea-level pressure: 1011.0 mb]
Winds: calm
Visibility: 1.50 miles (2.41 km)
Ceiling: 3000 feet AGL
Clouds: scattered clouds at 0 feet AGL
overcast cloud deck at 3000 feet AGL
Weather: FU  (smoke)

METAR text: PANC 200553Z 00000KT 1 1/2SM FU SCT000 OVC038 12/06 A2984 RMK AO2 TWR VIS 2 SLP106 FU SCT000 T01170061 10183 20106 55002
Conditions at: PANC (ANCHORAGE INTL , AK, US) observed 0553 UTC 20 August 2019
Temperature: 11.7°C (53°F)
Dewpoint: 6.1°C (43°F) [RH = 68%]
Pressure (altimeter): 29.84 inches Hg (1010.6 mb)
[Sea-level pressure: 1010.6 mb]
Winds: calm
Visibility: 1.50 miles (2.41 km)
Ceiling: 3800 feet AGL
Clouds: scattered clouds at 0 feet AGL
overcast cloud deck at 3800 feet AGL
Weather: FU  (smoke)

METAR text: PANC 200541Z 00000KT 1 1/2SM FU SCT000 OVC038 12/06 A2984 RMK AO2 TWR VIS 2 FU SCT000 T01220061
Conditions at: PANC (ANCHORAGE INTL , AK, US) observed 0541 UTC 20 August 2019
Temperature: 12.2°C (54°F)
Dewpoint: 6.1°C (43°F) [RH = 66%]
Pressure (altimeter): 29.84 inches Hg (1010.6 mb)
Winds: calm
Visibility: 1.50 miles (2.41 km)
Ceiling: 3800 feet AGL
Clouds: scattered clouds at 0 feet AGL
overcast cloud deck at 3800 feet AGL
Weather: FU  (smoke)

METAR text: PANC 200453Z 00000KT 2SM FU SCT000 OVC030 13/06 A2984 RMK AO2 SLP105 VIS N 1 1/2 FU SCT000 T01280056
Conditions at: PANC (ANCHORAGE INTL , AK, US) observed 0453 UTC 20 August 2019
Temperature: 12.8°C (55°F)
Dewpoint: 5.6°C (42°F) [RH = 62%]
Pressure (altimeter): 29.84 inches Hg (1010.6 mb)
[Sea-level pressure: 1010.5 mb]
Winds: calm
Visibility: 2.00 miles (3.22 km)
Ceiling: 3000 feet AGL
Clouds: scattered clouds at 0 feet AGL
overcast cloud deck at 3000 feet AGL
Weather: FU  (smoke)

METAR text: PANC 200440Z 00000KT 2SM FU SCT000 OVC030 14/05 A2984 RMK AO2 VIS N 1 1/2 FU SCT000 T01440050
Conditions at: PANC (ANCHORAGE INTL , AK, US) observed 0440 UTC 20 August 2019
Temperature: 14.4°C (58°F)
Dewpoint: 5.0°C (41°F) [RH = 53%]
Pressure (altimeter): 29.84 inches Hg (1010.6 mb)
Winds: calm
Visibility: 2.00 miles (3.22 km)
Ceiling: 3000 feet AGL
Clouds: scattered clouds at 0 feet AGL
overcast cloud deck at 3000 feet AGL
Weather: FU  (smoke)

METAR text: PANC 200353Z 00000KT 1 1/2SM FU SCT000 OVC050 15/04 A2984 RMK AO2 TWR VIS 2 SLP106 VIS N 1 FU SCT000 T01500044
Conditions at: PANC (ANCHORAGE INTL , AK, US) observed 0353 UTC 20 August 2019
Temperature: 15.0°C (59°F)
Dewpoint: 4.4°C (40°F) [RH = 49%]
Pressure (altimeter): 29.84 inches Hg (1010.6 mb)
[Sea-level pressure: 1010.6 mb]
Winds: calm
Visibility: 1.50 miles (2.41 km)
Ceiling: 5000 feet AGL
Clouds: scattered clouds at 0 feet AGL
overcast cloud deck at 5000 feet AGL
Weather: FU  (smoke)

METAR text: PANC 200253Z 36003KT 1 1/2SM FU SCT000 OVC040 16/03 A2985 RMK AO2 TWR VIS 2 SLP108 VIS N 1 FU SCT000 T01610033 56012
Conditions at: PANC (ANCHORAGE INTL , AK, US) observed 0253 UTC 20 August 2019
Temperature: 16.1°C (61°F)
Dewpoint: 3.3°C (38°F) [RH = 42%]
Pressure (altimeter): 29.85 inches Hg (1010.9 mb)
[Sea-level pressure: 1010.8 mb]
Winds: from the N (360 degrees) at 3 MPH (3 knots; 1.5 m/s)
Visibility: 1.50 miles (2.41 km)
Ceiling: 4000 feet AGL
Clouds: scattered clouds at 0 feet AGL
overcast cloud deck at 4000 feet AGL
Weather: FU  (smoke)

METAR text: PANC 200232Z 00000KT 1 1/2SM FU SCT000 OVC037 17/03 A2985 RMK AO2 TWR VIS 2 VIS N 1 FU SCT000 T01670028
Conditions at: PANC (ANCHORAGE INTL , AK, US) observed 0232 UTC 20 August 2019
Temperature: 16.7°C (62°F)
Dewpoint: 2.8°C (37°F) [RH = 39%]
Pressure (altimeter): 29.85 inches Hg (1010.9 mb)
Winds: calm
Visibility: 1.50 miles (2.41 km)
Ceiling: 3700 feet AGL
Clouds: scattered clouds at 0 feet AGL
overcast cloud deck at 3700 feet AGL
Weather: FU  (smoke)

METAR text: PANC 200153Z 00000KT 1 1/2SM FU SCT000 OVC028 17/04 A2986 RMK AO2 TWR VIS 2 SLP110 VIS N 1 FU SCT000 T01670039
Conditions at: PANC (ANCHORAGE INTL , AK, US) observed 0153 UTC 20 August 2019
Temperature: 16.7°C (62°F)
Dewpoint: 3.9°C (39°F) [RH = 42%]
Pressure (altimeter): 29.86 inches Hg (1011.3 mb)
[Sea-level pressure: 1011.0 mb]
Winds: calm
Visibility: 1.50 miles (2.41 km)
Ceiling: 2800 feet AGL
Clouds: scattered clouds at 0 feet AGL
overcast cloud deck at 2800 feet AGL
Weather: FU  (smoke)

Forecast for: PANC (ANCHORAGE INTL , AK, US)
Text: PANC 211125Z 2112/2218 24007KT P6SM FEW100
Forecast period: 1200 to 2100 UTC 21 August 2019
Forecast type: FROM: standard forecast or significant change
Winds: from the WSW (240 degrees) at 8 MPH (7 knots; 3.6 m/s)
Visibility: 6 or more miles 10+ km)
Ceiling: at least 12,000 feet AGL
Clouds: few clouds at 10000 feet AGL
Weather: no significant weather forecast for this period
Text: FM212100 30006KT P6SM FEW050 SCT200
Forecast period: 2100 UTC 21 August 2019 to 1800 UTC 22 August 2019
Forecast type: FROM: standard forecast or significant change
Winds: from the WNW (300 degrees) at 7 MPH (6 knots; 3.1 m/s)
Visibility: 6 or more miles 10+ km)
Ceiling: at least 12,000 feet AGL
Clouds: few clouds at 5000 feet AGL
scattered clouds at 20000 feet AGL
Weather: no significant weather forecast for this period